createdAt,value
2017-12-16T00:00:27.431Z,989.42
2017-12-16T00:01:27.441Z,989.4
2017-12-16T00:02:27.453Z,989.4
2017-12-16T00:03:27.461Z,989.41
2017-12-16T00:04:27.470Z,989.42
2017-12-16T00:05:27.481Z,989.4
2017-12-16T00:06:27.491Z,989.39
2017-12-16T00:07:27.501Z,989.39
2017-12-16T00:08:27.510Z,989.35
2017-12-16T00:09:27.520Z,989.39
2017-12-16T00:10:27.531Z,989.41
2017-12-16T00:11:27.545Z,989.4
2017-12-16T00:12:27.550Z,989.39
2017-12-16T00:13:27.561Z,989.39
2017-12-16T00:14:27.570Z,989.41
2017-12-16T00:15:27.579Z,989.4
2017-12-16T00:16:27.594Z,989.39
2017-12-16T00:17:27.602Z,989.44
2017-12-16T00:18:27.658Z,989.46
2017-12-16T00:19:27.619Z,989.45
2017-12-16T00:20:27.629Z,989.45
2017-12-16T00:21:27.639Z,989.5
2017-12-16T00:22:27.650Z,989.51
2017-12-16T00:23:27.658Z,989.49
2017-12-16T00:24:27.669Z,989.5
2017-12-16T00:25:27.682Z,989.55
2017-12-16T00:26:27.689Z,989.53
2017-12-16T00:27:27.704Z,989.56
2017-12-16T00:28:27.709Z,989.56
2017-12-16T00:29:27.719Z,989.57
2017-12-16T00:30:27.736Z,989.56
2017-12-16T00:31:27.742Z,989.52
2017-12-16T00:32:27.750Z,989.54
2017-12-16T00:33:27.758Z,989.53
2017-12-16T00:34:27.768Z,989.55
2017-12-16T00:35:27.776Z,989.54
2017-12-16T00:36:27.794Z,989.58
2017-12-16T00:37:27.798Z,989.57
2017-12-16T00:38:27.857Z,989.6
2017-12-16T00:39:27.818Z,989.61
2017-12-16T00:40:27.827Z,989.6
2017-12-16T00:41:27.835Z,989.63
2017-12-16T00:42:27.846Z,989.63
2017-12-16T00:43:27.855Z,989.64
2017-12-16T00:44:27.868Z,989.66
2017-12-16T00:45:27.876Z,989.66
2017-12-16T00:46:27.890Z,989.69
2017-12-16T00:47:27.897Z,989.7
2017-12-16T00:48:27.905Z,989.69
2017-12-16T00:49:27.915Z,989.72
2017-12-16T00:50:27.928Z,989.72
2017-12-16T00:51:27.950Z,989.73
2017-12-16T00:52:27.944Z,989.76
2017-12-16T00:53:27.957Z,989.77
2017-12-16T00:54:27.967Z,989.83
2017-12-16T00:55:27.974Z,989.82
2017-12-16T00:56:27.984Z,989.82
2017-12-16T00:57:27.994Z,989.85
2017-12-16T00:58:28.003Z,989.88
2017-12-16T00:59:28.012Z,989.87
2017-12-16T01:00:28.023Z,989.9
2017-12-16T01:01:28.032Z,989.9
2017-12-16T01:02:28.043Z,989.91
2017-12-16T01:03:28.058Z,989.91
2017-12-16T01:04:28.061Z,989.92
2017-12-16T01:05:28.072Z,989.96
2017-12-16T01:06:28.081Z,989.94
2017-12-16T01:07:28.090Z,989.9
2017-12-16T01:08:28.100Z,989.96
2017-12-16T01:09:28.110Z,989.92
2017-12-16T01:10:28.119Z,989.96
2017-12-16T01:11:28.130Z,990
2017-12-16T01:12:28.139Z,990
2017-12-16T01:13:28.156Z,990.03
2017-12-16T01:14:28.158Z,990.04
2017-12-16T01:15:28.170Z,990.07
2017-12-16T01:16:28.177Z,990.05
2017-12-16T01:17:28.185Z,990.03
2017-12-16T01:18:28.195Z,990.04
2017-12-16T01:19:28.206Z,990.05
2017-12-16T01:20:28.222Z,990.07
2017-12-16T01:21:28.227Z,990.09
2017-12-16T01:22:28.236Z,990.07
2017-12-16T01:23:28.245Z,990.06
2017-12-16T01:24:28.257Z,990.1
2017-12-16T01:25:28.263Z,990.13
2017-12-16T01:26:28.274Z,990.16
2017-12-16T01:27:28.286Z,990.17
2017-12-16T01:28:28.292Z,990.16
2017-12-16T01:29:28.302Z,990.21
2017-12-16T01:30:28.311Z,990.19
2017-12-16T01:31:28.321Z,990.2
2017-12-16T01:32:28.330Z,990.22
2017-12-16T01:33:28.341Z,990.21
2017-12-16T01:34:28.350Z,990.22
2017-12-16T01:35:28.360Z,990.28
2017-12-16T01:36:28.372Z,990.27
2017-12-16T01:37:28.382Z,990.27
2017-12-16T01:38:28.389Z,990.23
2017-12-16T01:39:28.399Z,990.26
2017-12-16T01:40:28.407Z,990.27
2017-12-16T01:41:28.422Z,990.27
2017-12-16T01:42:28.426Z,990.26
2017-12-16T01:43:28.435Z,990.28
2017-12-16T01:44:28.445Z,990.24
2017-12-16T01:45:28.456Z,990.28
2017-12-16T01:46:28.464Z,990.3
2017-12-16T01:47:28.475Z,990.32
2017-12-16T01:48:28.486Z,990.27
2017-12-16T01:49:28.494Z,990.33
2017-12-16T01:50:28.502Z,990.29
2017-12-16T01:51:28.512Z,990.3
2017-12-16T01:52:28.524Z,990.28
2017-12-16T01:53:28.532Z,990.24
2017-12-16T01:54:28.541Z,990.26
2017-12-16T01:55:28.551Z,990.26
2017-12-16T01:56:28.560Z,990.26
2017-12-16T01:57:28.569Z,990.31
2017-12-16T01:58:28.580Z,990.3
2017-12-16T01:59:28.597Z,990.28
2017-12-16T02:00:28.598Z,990.32
2017-12-16T02:01:28.608Z,990.31
2017-12-16T02:02:28.616Z,990.32
2017-12-16T02:03:28.630Z,990.32
2017-12-16T02:04:28.637Z,990.33
2017-12-16T02:05:28.648Z,990.38
2017-12-16T02:06:28.666Z,990.37
2017-12-16T02:07:28.669Z,990.37
2017-12-16T02:08:28.675Z,990.39
2017-12-16T02:09:28.706Z,990.4
2017-12-16T02:10:28.698Z,990.37
2017-12-16T02:11:28.703Z,990.38
2017-12-16T02:12:28.712Z,990.36
2017-12-16T02:13:28.721Z,990.4
2017-12-16T02:14:28.781Z,990.35
2017-12-16T02:15:28.740Z,990.39
2017-12-16T02:16:28.751Z,990.35
2017-12-16T02:17:28.758Z,990.33
2017-12-16T02:18:28.771Z,990.29
2017-12-16T02:19:28.889Z,990.35
2017-12-16T02:20:28.794Z,990.31
2017-12-16T02:21:28.799Z,990.34
2017-12-16T02:22:28.809Z,990.32
2017-12-16T02:23:28.818Z,990.32
2017-12-16T02:24:28.828Z,990.35
2017-12-16T02:25:28.837Z,990.34
2017-12-16T02:26:28.847Z,990.31
2017-12-16T02:27:28.856Z,990.31
2017-12-16T02:28:28.868Z,990.3
2017-12-16T02:29:28.880Z,990.31
2017-12-16T02:30:28.884Z,990.3
2017-12-16T02:31:28.901Z,990.32
2017-12-16T02:32:28.904Z,990.3
2017-12-16T02:33:28.915Z,990.34
2017-12-16T02:34:28.923Z,990.38
2017-12-16T02:35:28.932Z,990.34
2017-12-16T02:36:28.942Z,990.38
2017-12-16T02:37:28.952Z,990.38
2017-12-16T02:38:28.961Z,990.34
2017-12-16T02:39:28.970Z,990.4
2017-12-16T02:40:28.980Z,990.38
2017-12-16T02:41:28.993Z,990.37
2017-12-16T02:42:29.000Z,990.4
2017-12-16T02:43:29.009Z,990.4
2017-12-16T02:44:29.019Z,990.43
2017-12-16T02:45:29.028Z,990.41
2017-12-16T02:46:29.038Z,990.42
2017-12-16T02:47:29.046Z,990.41
2017-12-16T02:48:29.064Z,990.43
2017-12-16T02:49:29.120Z,990.4
2017-12-16T02:50:29.076Z,990.39
2017-12-16T02:51:29.085Z,990.38
2017-12-16T02:52:29.094Z,990.43
2017-12-16T02:53:29.106Z,990.42
2017-12-16T02:54:29.113Z,990.41
2017-12-16T02:55:29.124Z,990.45
2017-12-16T02:56:29.135Z,990.45
2017-12-16T02:57:29.144Z,990.46
2017-12-16T02:58:29.153Z,990.48
2017-12-16T02:59:29.161Z,990.49
2017-12-16T03:00:29.170Z,990.48
2017-12-16T03:01:29.180Z,990.45
2017-12-16T03:02:29.190Z,990.5
2017-12-16T03:03:29.199Z,990.49
2017-12-16T03:04:29.209Z,990.49
2017-12-16T03:05:29.218Z,990.53
2017-12-16T03:06:29.229Z,990.55
2017-12-16T03:07:29.238Z,990.55
2017-12-16T03:08:29.247Z,990.55
2017-12-16T03:09:29.258Z,990.53
2017-12-16T03:10:29.266Z,990.54
2017-12-16T03:11:29.276Z,990.54
2017-12-16T03:12:29.285Z,990.52
2017-12-16T03:13:29.294Z,990.54
2017-12-16T03:14:29.304Z,990.51
2017-12-16T03:15:29.313Z,990.51
2017-12-16T03:16:29.323Z,990.52
2017-12-16T03:17:29.335Z,990.52
2017-12-16T03:18:29.342Z,990.52
2017-12-16T03:19:29.352Z,990.53
2017-12-16T03:20:29.362Z,990.51
2017-12-16T03:21:29.374Z,990.49
2017-12-16T03:22:29.379Z,990.44
2017-12-16T03:23:29.390Z,990.5
2017-12-16T03:24:29.400Z,990.48
2017-12-16T03:25:29.508Z,990.52
2017-12-16T03:26:29.419Z,990.53
2017-12-16T03:27:29.429Z,990.53
2017-12-16T03:28:29.438Z,990.53
2017-12-16T03:29:29.446Z,990.6
2017-12-16T03:30:29.508Z,990.57
2017-12-16T03:31:29.467Z,990.57
2017-12-16T03:32:29.477Z,990.54
2017-12-16T03:33:29.484Z,990.61
2017-12-16T03:34:29.494Z,990.58
2017-12-16T03:35:29.553Z,990.59
2017-12-16T03:36:29.516Z,990.59
2017-12-16T03:37:29.528Z,990.6
2017-12-16T03:38:29.533Z,990.6
2017-12-16T03:39:29.544Z,990.55
2017-12-16T03:40:29.602Z,990.59
2017-12-16T03:41:29.562Z,990.64
2017-12-16T03:42:29.580Z,990.67
2017-12-16T03:43:29.582Z,990.66
2017-12-16T03:44:29.592Z,990.67
2017-12-16T03:45:29.701Z,990.68
2017-12-16T03:46:29.611Z,990.65
2017-12-16T03:47:29.618Z,990.66
2017-12-16T03:48:29.634Z,990.7
2017-12-16T03:49:29.639Z,990.7
2017-12-16T03:50:29.698Z,990.67
2017-12-16T03:51:29.658Z,990.64
2017-12-16T03:52:29.668Z,990.65
2017-12-16T03:53:29.677Z,990.7
2017-12-16T03:54:29.687Z,990.68
2017-12-16T03:55:29.697Z,990.72
2017-12-16T03:56:29.706Z,990.72
2017-12-16T03:57:29.716Z,990.68
2017-12-16T03:58:29.725Z,990.68
2017-12-16T03:59:29.741Z,990.72
2017-12-16T04:00:29.743Z,990.67
2017-12-16T04:01:29.758Z,990.69
2017-12-16T04:02:29.766Z,990.66
2017-12-16T04:03:29.775Z,990.74
2017-12-16T04:04:29.784Z,990.79
2017-12-16T04:05:29.792Z,990.76
2017-12-16T04:06:29.804Z,990.74
2017-12-16T04:07:29.817Z,990.78
2017-12-16T04:08:29.823Z,990.79
2017-12-16T04:09:29.832Z,990.76
2017-12-16T04:10:29.840Z,990.77
2017-12-16T04:11:29.851Z,990.71
2017-12-16T04:12:29.861Z,990.71
2017-12-16T04:13:29.869Z,990.7
2017-12-16T04:14:29.882Z,990.76
2017-12-16T04:15:29.888Z,990.74
2017-12-16T04:16:29.898Z,990.71
2017-12-16T04:17:29.909Z,990.73
2017-12-16T04:18:29.917Z,990.75
2017-12-16T04:19:29.932Z,990.78
2017-12-16T04:20:29.939Z,990.79
2017-12-16T04:21:29.947Z,990.75
2017-12-16T04:22:29.956Z,990.76
2017-12-16T04:23:29.966Z,990.78
2017-12-16T04:24:29.978Z,990.74
2017-12-16T04:25:29.985Z,990.73
2017-12-16T04:26:29.995Z,990.72
2017-12-16T04:27:30.004Z,990.7
2017-12-16T04:28:30.014Z,990.73
2017-12-16T04:29:30.024Z,990.72
2017-12-16T04:30:30.033Z,990.73
2017-12-16T04:31:30.044Z,990.71
2017-12-16T04:32:30.051Z,990.74
2017-12-16T04:33:30.062Z,990.74
2017-12-16T04:34:30.071Z,990.75
2017-12-16T04:35:30.132Z,990.74
2017-12-16T04:36:30.091Z,990.76
2017-12-16T04:37:30.103Z,990.7
2017-12-16T04:38:30.111Z,990.73
2017-12-16T04:39:30.119Z,990.71
2017-12-16T04:40:30.129Z,990.72
2017-12-16T04:41:30.140Z,990.71
2017-12-16T04:42:30.149Z,990.72
2017-12-16T04:43:30.158Z,990.73
2017-12-16T04:44:30.167Z,990.78
2017-12-16T04:45:30.178Z,990.8
2017-12-16T04:46:30.187Z,990.79
2017-12-16T04:47:30.198Z,990.79
2017-12-16T04:48:30.207Z,990.81
2017-12-16T04:49:30.216Z,990.82
2017-12-16T04:50:30.226Z,990.77
2017-12-16T04:51:30.235Z,990.75
2017-12-16T04:52:30.246Z,990.72
2017-12-16T04:53:30.256Z,990.77
2017-12-16T04:54:30.265Z,990.8
2017-12-16T04:55:30.276Z,990.75
2017-12-16T04:56:30.284Z,990.78
2017-12-16T04:57:30.295Z,990.82
2017-12-16T04:58:30.303Z,990.87
2017-12-16T04:59:30.312Z,990.91
2017-12-16T05:00:30.326Z,990.95
2017-12-16T05:01:30.340Z,990.88
2017-12-16T05:02:30.342Z,990.82
2017-12-16T05:03:30.352Z,990.85
2017-12-16T05:04:30.360Z,990.86
2017-12-16T05:05:30.371Z,990.9
2017-12-16T05:06:30.380Z,990.89
2017-12-16T05:07:30.390Z,990.89
2017-12-16T05:08:30.399Z,990.89
2017-12-16T05:09:30.411Z,990.9
2017-12-16T05:10:30.422Z,990.91
2017-12-16T05:11:30.428Z,990.94
2017-12-16T05:12:30.439Z,990.99
2017-12-16T05:13:30.452Z,990.92
2017-12-16T05:14:30.460Z,990.94
2017-12-16T05:15:30.467Z,990.87
2017-12-16T05:16:30.491Z,990.96
2017-12-16T05:17:30.486Z,990.97
2017-12-16T05:18:30.499Z,990.99
2017-12-16T05:19:30.507Z,991.01
2017-12-16T05:20:30.516Z,990.96
2017-12-16T05:21:30.526Z,990.97
2017-12-16T05:22:30.536Z,990.98
2017-12-16T05:23:30.544Z,991
2017-12-16T05:24:30.555Z,991.04
2017-12-16T05:25:30.566Z,991.06
2017-12-16T05:26:30.574Z,991.1
2017-12-16T05:27:30.584Z,991.1
2017-12-16T05:28:30.640Z,991.11
2017-12-16T05:29:30.604Z,991.17
2017-12-16T05:30:30.613Z,991.13
2017-12-16T05:31:30.622Z,991.15
2017-12-16T05:32:30.635Z,991.16
2017-12-16T05:33:30.641Z,991.18
2017-12-16T05:34:30.658Z,991.13
2017-12-16T05:35:30.662Z,991.22
2017-12-16T05:36:30.673Z,991.12
2017-12-16T05:37:30.708Z,991.15
2017-12-16T05:38:30.691Z,991.18
2017-12-16T05:39:30.703Z,991.17
2017-12-16T05:40:30.712Z,991.18
2017-12-16T05:41:30.721Z,991.18
2017-12-16T05:42:30.730Z,991.2
2017-12-16T05:43:30.740Z,991.25
2017-12-16T05:44:30.749Z,991.23
2017-12-16T05:45:30.759Z,991.22
2017-12-16T05:46:30.769Z,991.31
2017-12-16T05:47:30.779Z,991.35
2017-12-16T05:48:30.788Z,991.36
2017-12-16T05:49:30.798Z,991.3
2017-12-16T05:50:30.808Z,991.33
2017-12-16T05:51:30.865Z,991.37
2017-12-16T05:52:30.839Z,991.35
2017-12-16T05:53:30.836Z,991.35
2017-12-16T05:54:30.848Z,991.29
2017-12-16T05:55:30.854Z,991.36
2017-12-16T05:56:30.871Z,991.37
2017-12-16T05:57:30.877Z,991.34
2017-12-16T05:58:30.886Z,991.34
2017-12-16T05:59:30.895Z,991.33
2017-12-16T06:00:30.914Z,991.37
2017-12-16T06:01:30.916Z,991.39
2017-12-16T06:02:30.925Z,991.45
2017-12-16T06:03:30.934Z,991.42
2017-12-16T06:04:31.004Z,991.43
2017-12-16T06:05:30.957Z,991.39
2017-12-16T06:06:30.965Z,991.42
2017-12-16T06:07:30.973Z,991.41
2017-12-16T06:08:30.986Z,991.45
2017-12-16T06:09:30.994Z,991.44
2017-12-16T06:10:31.005Z,991.46
2017-12-16T06:11:31.012Z,991.52
2017-12-16T06:12:31.022Z,991.49
2017-12-16T06:13:31.032Z,991.47
2017-12-16T06:14:31.042Z,991.5
2017-12-16T06:15:31.051Z,991.48
2017-12-16T06:16:31.062Z,991.53
2017-12-16T06:17:31.071Z,991.56
2017-12-16T06:18:31.080Z,991.58
2017-12-16T06:19:31.090Z,991.59
2017-12-16T06:20:31.100Z,991.59
2017-12-16T06:21:31.113Z,991.63
2017-12-16T06:22:31.121Z,991.64
2017-12-16T06:23:31.129Z,991.67
2017-12-16T06:24:31.140Z,991.68
2017-12-16T06:25:31.148Z,991.7
2017-12-16T06:26:31.210Z,991.66
2017-12-16T06:27:31.169Z,991.67
2017-12-16T06:28:31.182Z,991.69
2017-12-16T06:29:31.188Z,991.69
2017-12-16T06:30:31.201Z,991.67
2017-12-16T06:31:31.208Z,991.71
2017-12-16T06:32:31.218Z,991.7
2017-12-16T06:33:31.227Z,991.77
2017-12-16T06:34:31.237Z,991.75
2017-12-16T06:35:31.246Z,991.77
2017-12-16T06:36:31.255Z,991.75
2017-12-16T06:37:31.267Z,991.77
2017-12-16T06:38:31.276Z,991.78
2017-12-16T06:39:31.284Z,991.78
2017-12-16T06:40:31.296Z,991.8
2017-12-16T06:41:31.308Z,991.79
2017-12-16T06:42:31.316Z,991.8
2017-12-16T06:43:31.324Z,991.81
2017-12-16T06:44:31.334Z,991.89
2017-12-16T06:45:31.345Z,991.85
2017-12-16T06:46:31.404Z,991.89
2017-12-16T06:47:31.363Z,991.93
2017-12-16T06:48:31.373Z,991.95
2017-12-16T06:49:31.434Z,991.95
2017-12-16T06:50:31.395Z,991.94
2017-12-16T06:51:31.500Z,991.93
2017-12-16T06:52:31.477Z,991.88
2017-12-16T06:53:31.424Z,991.93
2017-12-16T06:54:31.489Z,992
2017-12-16T06:55:31.442Z,991.99
2017-12-16T06:56:31.504Z,992.01
2017-12-16T06:57:31.461Z,992.05
2017-12-16T06:58:31.478Z,992.01
2017-12-16T06:59:31.480Z,992.02
2017-12-16T07:00:31.493Z,992.05
2017-12-16T07:01:31.500Z,992.05
2017-12-16T07:02:31.512Z,992.04
2017-12-16T07:03:31.575Z,992.07
2017-12-16T07:04:31.530Z,992.07
2017-12-16T07:05:31.540Z,992.12
2017-12-16T07:06:31.551Z,992.12
2017-12-16T07:07:31.560Z,992.13
2017-12-16T07:08:31.569Z,992.1
2017-12-16T07:09:31.579Z,992.2
2017-12-16T07:10:31.597Z,992.21
2017-12-16T07:11:31.600Z,992.24
2017-12-16T07:12:31.609Z,992.22
2017-12-16T07:13:31.619Z,992.22
2017-12-16T07:14:31.630Z,992.28
2017-12-16T07:15:31.640Z,992.31
2017-12-16T07:16:31.649Z,992.27
2017-12-16T07:17:31.662Z,992.3
2017-12-16T07:18:31.718Z,992.31
2017-12-16T07:19:31.684Z,992.31
2017-12-16T07:20:31.689Z,992.35
2017-12-16T07:21:31.712Z,992.38
2017-12-16T07:22:31.709Z,992.39
2017-12-16T07:23:31.717Z,992.41
2017-12-16T07:24:31.728Z,992.41
2017-12-16T07:25:31.738Z,992.41
2017-12-16T07:26:31.745Z,992.43
2017-12-16T07:27:31.756Z,992.43
2017-12-16T07:28:31.767Z,992.47
2017-12-16T07:29:31.781Z,992.51
2017-12-16T07:30:31.785Z,992.46
2017-12-16T07:31:31.795Z,992.5
2017-12-16T07:32:31.806Z,992.5
2017-12-16T07:33:31.817Z,992.54
2017-12-16T07:34:31.828Z,992.54
2017-12-16T07:35:31.835Z,992.52
2017-12-16T07:36:31.845Z,992.52
2017-12-16T07:37:31.940Z,992.6
2017-12-16T07:38:31.903Z,992.61
2017-12-16T07:39:31.874Z,992.61
2017-12-16T07:40:31.884Z,992.66
2017-12-16T07:41:31.894Z,992.64
2017-12-16T07:42:31.914Z,992.65
2017-12-16T07:43:31.917Z,992.65
2017-12-16T07:44:31.929Z,992.7
2017-12-16T07:45:31.933Z,992.68
2017-12-16T07:46:31.944Z,992.7
2017-12-16T07:47:31.955Z,992.73
2017-12-16T07:48:31.963Z,992.76
2017-12-16T07:49:31.972Z,992.75
2017-12-16T07:50:31.984Z,992.82
2017-12-16T07:51:31.992Z,992.83
2017-12-16T07:52:32.003Z,992.85
2017-12-16T07:53:32.012Z,992.84
2017-12-16T07:54:32.024Z,992.88
2017-12-16T07:55:32.034Z,992.89
2017-12-16T07:56:32.050Z,992.83
2017-12-16T07:57:32.052Z,992.88
2017-12-16T07:58:32.069Z,992.88
2017-12-16T07:59:32.073Z,992.89
2017-12-16T08:00:32.113Z,992.91
2017-12-16T08:01:32.144Z,992.94
2017-12-16T08:02:32.102Z,992.95
2017-12-16T08:03:32.111Z,992.95
2017-12-16T08:04:32.121Z,992.97
2017-12-16T08:05:32.131Z,992.96
2017-12-16T08:06:32.142Z,992.99
2017-12-16T08:07:32.153Z,993.03
2017-12-16T08:08:32.162Z,993.04
2017-12-16T08:09:32.171Z,993.05
2017-12-16T08:10:32.181Z,993.04
2017-12-16T08:11:32.191Z,993.02
2017-12-16T08:12:32.254Z,993.01
2017-12-16T08:13:32.211Z,993.05
2017-12-16T08:14:32.221Z,993.05
2017-12-16T08:15:32.233Z,993.06
2017-12-16T08:16:32.240Z,993.04
2017-12-16T08:17:32.301Z,993.09
2017-12-16T08:18:32.261Z,993.1
2017-12-16T08:19:32.270Z,993.11
2017-12-16T08:20:32.288Z,993.16
2017-12-16T08:21:32.299Z,993.17
2017-12-16T08:22:32.350Z,993.17
2017-12-16T08:23:32.316Z,993.18
2017-12-16T08:24:32.321Z,993.21
2017-12-16T08:25:32.330Z,993.22
2017-12-16T08:26:32.343Z,993.18
2017-12-16T08:27:32.351Z,993.21
2017-12-16T08:28:32.363Z,993.22
2017-12-16T08:29:32.371Z,993.22
2017-12-16T08:30:32.380Z,993.2
2017-12-16T08:31:32.391Z,993.23
2017-12-16T08:32:32.402Z,993.25
2017-12-16T08:33:32.411Z,993.31
2017-12-16T08:34:32.422Z,993.35
2017-12-16T08:35:32.432Z,993.35
2017-12-16T08:36:32.440Z,993.36
2017-12-16T08:37:32.451Z,993.36
2017-12-16T08:38:32.462Z,993.42
2017-12-16T08:39:32.472Z,993.42
2017-12-16T08:40:32.480Z,993.43
2017-12-16T08:41:32.492Z,993.45
2017-12-16T08:42:32.503Z,993.43
2017-12-16T08:43:32.512Z,993.47
2017-12-16T08:44:32.520Z,993.49
2017-12-16T08:45:32.582Z,993.46
2017-12-16T08:46:32.547Z,993.49
2017-12-16T08:47:32.551Z,993.51
2017-12-16T08:48:32.560Z,993.53
2017-12-16T08:49:32.571Z,993.51
2017-12-16T08:50:32.581Z,993.54
2017-12-16T08:51:32.591Z,993.53
2017-12-16T08:52:32.602Z,993.54
2017-12-16T08:53:32.611Z,993.56
2017-12-16T08:54:32.621Z,993.53
2017-12-16T08:55:32.631Z,993.58
2017-12-16T08:56:32.643Z,993.58
2017-12-16T08:57:32.652Z,993.63
2017-12-16T08:58:32.705Z,993.66
2017-12-16T08:59:32.709Z,993.63
2017-12-16T09:00:32.683Z,993.65
2017-12-16T09:01:32.691Z,993.67
2017-12-16T09:02:32.703Z,993.67
2017-12-16T09:03:32.714Z,993.67
2017-12-16T09:04:32.721Z,993.75
2017-12-16T09:05:32.731Z,993.77
2017-12-16T09:06:32.743Z,993.76
2017-12-16T09:07:32.752Z,993.83
2017-12-16T09:08:32.772Z,993.78
2017-12-16T09:09:32.774Z,993.81
2017-12-16T09:10:32.802Z,993.8
2017-12-16T09:11:32.793Z,993.76
2017-12-16T09:12:32.803Z,993.81
2017-12-16T09:13:32.812Z,993.8
2017-12-16T09:14:32.825Z,993.81
2017-12-16T09:15:32.833Z,993.8
2017-12-16T09:16:32.842Z,993.83
2017-12-16T09:17:32.890Z,993.77
2017-12-16T09:18:32.866Z,993.84
2017-12-16T09:19:32.876Z,993.85
2017-12-16T09:20:32.883Z,993.84
2017-12-16T09:21:32.894Z,993.84
2017-12-16T09:22:32.903Z,993.8
2017-12-16T09:23:32.920Z,993.76
2017-12-16T09:24:32.924Z,993.79
2017-12-16T09:25:32.934Z,993.78
2017-12-16T09:26:32.952Z,993.84
2017-12-16T09:27:32.957Z,993.85
2017-12-16T09:28:32.967Z,993.85
2017-12-16T09:29:32.975Z,993.86
2017-12-16T09:30:32.988Z,993.87
2017-12-16T09:31:32.996Z,993.85
2017-12-16T09:32:33.006Z,993.92
2017-12-16T09:33:33.016Z,993.94
2017-12-16T09:34:33.055Z,993.91
2017-12-16T09:35:33.035Z,993.92
2017-12-16T09:36:33.047Z,993.9
2017-12-16T09:37:33.057Z,993.93
2017-12-16T09:38:33.067Z,993.96
2017-12-16T09:39:33.082Z,993.98
2017-12-16T09:40:33.087Z,994.03
2017-12-16T09:41:33.098Z,993.98
2017-12-16T09:42:33.108Z,993.99
2017-12-16T09:43:33.119Z,993.99
2017-12-16T09:44:33.128Z,994.01
2017-12-16T09:45:33.138Z,994
2017-12-16T09:46:33.152Z,993.99
2017-12-16T09:47:33.158Z,994.01
2017-12-16T09:48:33.169Z,993.97
2017-12-16T09:49:33.180Z,993.99
2017-12-16T09:50:33.192Z,994.01
2017-12-16T09:51:33.202Z,994.03
2017-12-16T09:52:33.211Z,994.03
2017-12-16T09:53:33.223Z,994.08
2017-12-16T09:54:33.233Z,994.05
2017-12-16T09:55:33.241Z,994.07
2017-12-16T09:56:33.252Z,994.06
2017-12-16T09:57:33.262Z,994.06
2017-12-16T09:58:33.322Z,994.02
2017-12-16T09:59:33.286Z,994.05
2017-12-16T10:00:33.292Z,993.99
2017-12-16T10:01:33.303Z,994.03
2017-12-16T10:02:33.314Z,994.05
2017-12-16T10:03:33.373Z,994.05
2017-12-16T10:04:33.334Z,994.06
2017-12-16T10:05:33.344Z,994.08
2017-12-16T10:06:33.362Z,994.08
2017-12-16T10:07:33.365Z,994.09
2017-12-16T10:08:33.425Z,994.12
2017-12-16T10:09:33.444Z,994.13
2017-12-16T10:10:33.397Z,994.13
2017-12-16T10:11:33.406Z,994.07
2017-12-16T10:12:33.445Z,994.05
2017-12-16T10:13:33.446Z,994.09
2017-12-16T10:14:33.444Z,994.09
2017-12-16T10:15:33.449Z,994.11
2017-12-16T10:16:33.460Z,994.12
2017-12-16T10:17:33.471Z,994.09
2017-12-16T10:18:33.576Z,994.13
2017-12-16T10:19:33.490Z,994.1
2017-12-16T10:20:33.501Z,994.12
2017-12-16T10:21:33.519Z,994.1
2017-12-16T10:22:33.522Z,994.13
2017-12-16T10:23:33.584Z,994.15
2017-12-16T10:24:33.544Z,994.15
2017-12-16T10:25:33.553Z,994.13
2017-12-16T10:26:33.563Z,994.18
2017-12-16T10:27:33.575Z,994.17
2017-12-16T10:28:33.585Z,994.19
2017-12-16T10:29:33.595Z,994.19
2017-12-16T10:30:33.606Z,994.23
2017-12-16T10:31:33.618Z,994.24
2017-12-16T10:32:33.629Z,994.2
2017-12-16T10:33:33.738Z,994.19
2017-12-16T10:34:33.648Z,994.24
2017-12-16T10:35:33.659Z,994.23
2017-12-16T10:36:33.673Z,994.26
2017-12-16T10:37:33.686Z,994.28
2017-12-16T10:38:33.693Z,994.28
2017-12-16T10:39:33.701Z,994.3
2017-12-16T10:40:33.711Z,994.3
2017-12-16T10:41:33.724Z,994.32
2017-12-16T10:42:33.732Z,994.31
2017-12-16T10:43:33.794Z,994.34
2017-12-16T10:44:33.753Z,994.29
2017-12-16T10:45:33.766Z,994.28
2017-12-16T10:46:33.774Z,994.29
2017-12-16T10:47:33.788Z,994.32
2017-12-16T10:48:33.795Z,994.3
2017-12-16T10:49:33.806Z,994.3
2017-12-16T10:50:33.818Z,994.32
2017-12-16T10:51:33.827Z,994.33
2017-12-16T10:52:33.838Z,994.34
2017-12-16T10:53:33.848Z,994.35
2017-12-16T10:54:33.859Z,994.35
2017-12-16T10:55:33.869Z,994.4
2017-12-16T10:56:33.880Z,994.4
2017-12-16T10:57:33.890Z,994.38
2017-12-16T10:58:33.900Z,994.35
2017-12-16T10:59:33.911Z,994.46
2017-12-16T11:00:33.921Z,994.41
2017-12-16T11:01:33.932Z,994.42
2017-12-16T11:02:33.942Z,994.48
2017-12-16T11:03:33.953Z,994.5
2017-12-16T11:04:33.964Z,994.51
2017-12-16T11:05:33.974Z,994.5
2017-12-16T11:06:33.984Z,994.5
2017-12-16T11:07:33.996Z,994.52
2017-12-16T11:08:34.005Z,994.56
2017-12-16T11:09:34.016Z,994.56
2017-12-16T11:10:34.026Z,994.59
2017-12-16T11:11:34.038Z,994.6
2017-12-16T11:12:34.050Z,994.58
2017-12-16T11:13:34.060Z,994.66
2017-12-16T11:14:34.069Z,994.63
2017-12-16T11:15:34.082Z,994.63
2017-12-16T11:16:34.091Z,994.64
2017-12-16T11:17:34.100Z,994.63
2017-12-16T11:18:34.111Z,994.62
2017-12-16T11:19:34.121Z,994.64
2017-12-16T11:20:34.132Z,994.65
2017-12-16T11:21:34.142Z,994.67
2017-12-16T11:22:34.153Z,994.65
2017-12-16T11:23:34.164Z,994.71
2017-12-16T11:24:34.173Z,994.68
2017-12-16T11:25:34.184Z,994.66
2017-12-16T11:26:34.195Z,994.69
2017-12-16T11:27:34.207Z,994.68
2017-12-16T11:28:34.216Z,994.69
2017-12-16T11:29:34.229Z,994.66
2017-12-16T11:30:34.238Z,994.69
2017-12-16T11:31:34.247Z,994.71
2017-12-16T11:32:34.259Z,994.67
2017-12-16T11:33:34.269Z,994.7
2017-12-16T11:34:34.287Z,994.67
2017-12-16T11:35:34.290Z,994.69
2017-12-16T11:36:34.300Z,994.68
2017-12-16T11:37:34.313Z,994.67
2017-12-16T11:38:34.323Z,994.69
2017-12-16T11:39:34.331Z,994.69
2017-12-16T11:40:34.342Z,994.66
2017-12-16T11:41:34.353Z,994.72
2017-12-16T11:42:34.363Z,994.73
2017-12-16T11:43:34.374Z,994.72
2017-12-16T11:44:34.386Z,994.77
2017-12-16T11:45:34.396Z,994.78
2017-12-16T11:46:34.406Z,994.76
2017-12-16T11:47:34.417Z,994.8
2017-12-16T11:48:34.428Z,994.78
2017-12-16T11:49:34.438Z,994.81
2017-12-16T11:50:34.450Z,994.79
2017-12-16T11:51:34.460Z,994.78
2017-12-16T11:52:34.471Z,994.77
2017-12-16T11:53:34.480Z,994.8
2017-12-16T11:54:34.492Z,994.81
2017-12-16T11:55:34.506Z,994.8
2017-12-16T11:56:34.513Z,994.8
2017-12-16T11:57:34.524Z,994.79
2017-12-16T11:58:34.535Z,994.77
2017-12-16T11:59:34.551Z,994.8
2017-12-16T12:00:34.554Z,994.81
2017-12-16T12:01:34.568Z,994.8
2017-12-16T12:02:34.578Z,994.81
2017-12-16T12:03:34.588Z,994.85
2017-12-16T12:04:34.598Z,994.81
2017-12-16T12:05:34.608Z,994.82
2017-12-16T12:06:34.619Z,994.88
2017-12-16T12:07:34.631Z,994.88
2017-12-16T12:08:34.640Z,994.87
2017-12-16T12:09:34.651Z,994.88
2017-12-16T12:10:34.663Z,994.9
2017-12-16T12:11:34.670Z,994.91
2017-12-16T12:12:34.682Z,994.93
2017-12-16T12:13:34.694Z,994.9
2017-12-16T12:14:34.704Z,994.93
2017-12-16T12:15:34.718Z,994.96
2017-12-16T12:16:34.724Z,994.97
2017-12-16T12:17:34.736Z,994.98
2017-12-16T12:18:34.747Z,994.98
2017-12-16T12:19:34.756Z,994.98
2017-12-16T12:20:34.768Z,994.97
2017-12-16T12:21:34.779Z,994.99
2017-12-16T12:22:34.790Z,995
2017-12-16T12:23:34.802Z,995.01
2017-12-16T12:24:34.810Z,995.06
2017-12-16T12:25:34.824Z,995.05
2017-12-16T12:26:34.832Z,995.05
2017-12-16T12:27:34.843Z,995.05
2017-12-16T12:28:34.900Z,995.02
2017-12-16T12:29:34.865Z,995.05
2017-12-16T12:30:34.876Z,995.07
2017-12-16T12:31:34.889Z,995.04